Time;durP1;ratioP1;P1;durP2;ratioP2;P2;SDS_P1;SDS_P2;PMS_P1;PMS_P2;Temp;Humidity;BMP_temperature;BMP_pressure;BME280_temperature;BME280_humidity;BME280_pressure;Samples;Min_cycle;Max_cycle;Signal;HPM_P1;HPM_P2
2022/07/25 00:02:10;;;;;;;9.77;6.57;;;23.90;60.60;;;;;;9182056;19;20376;-66
2022/07/25 00:05:17;;;;;;;8.57;6.45;;;23.90;60.60;;;;;;9172188;19;20026;-65
2022/07/25 00:08:22;;;;;;;9.75;6.80;;;23.80;60.70;;;;;;9178692;19;20483;-67
2022/07/25 00:11:27;;;;;;;10.20;6.53;;;23.80;60.80;;;;;;9182528;19;20765;-67
2022/07/25 00:14:35;;;;;;;8.18;6.35;;;23.80;60.90;;;;;;9183626;19;20011;-65
2022/07/25 00:17:40;;;;;;;8.15;6.13;;;23.70;61.10;;;;;;9181432;19;20013;-66
2022/07/25 00:20:45;;;;;;;8.63;6.65;;;23.70;61.20;;;;;;9180398;19;20115;-67
2022/07/25 00:23:50;;;;;;;10.80;7.25;;;23.70;61.20;;;;;;9182005;19;20014;-67
2022/07/25 00:26:56;;;;;;;13.63;8.05;;;23.60;61.30;;;;;;9180028;19;20425;-66
2022/07/25 00:30:07;;;;;;;10.85;7.60;;;23.60;61.40;;;;;;9182130;19;20014;-66
2022/07/25 00:33:12;;;;;;;14.70;7.97;;;23.50;61.40;;;;;;9179888;19;20022;-65
2022/07/25 00:36:17;;;;;;;13.20;8.05;;;23.50;61.50;;;;;;9180347;19;20024;-66
2022/07/25 00:39:22;;;;;;;12.88;8.30;;;23.50;61.50;;;;;;9183267;19;20471;-66
2022/07/25 00:42:27;;;;;;;15.55;8.63;;;23.40;61.60;;;;;;9179543;19;20049;-66
2022/07/25 00:45:35;;;;;;;15.90;8.55;;;23.40;61.70;;;;;;9181230;19;20022;-65
2022/07/25 00:48:40;;;;;;;15.18;8.38;;;23.30;61.80;;;;;;9182216;19;20495;-66
2022/07/25 00:51:46;;;;;;;15.07;9.20;;;23.30;61.80;;;;;;9180055;19;20011;-65
2022/07/25 00:54:51;;;;;;;11.98;8.25;;;23.30;61.90;;;;;;9181124;19;20022;-66
2022/07/25 00:57:56;;;;;;;15.73;9.18;;;23.30;62.00;;;;;;9179304;19;20021;-66
2022/07/25 01:01:05;;;;;;;14.65;9.55;;;23.20;62.00;;;;;;9180376;19;20014;-64
2022/07/25 01:04:11;;;;;;;12.40;9.10;;;23.20;62.20;;;;;;9180279;19;20022;-66
2022/07/25 01:07:16;;;;;;;12.10;8.90;;;23.20;62.20;;;;;;9174453;19;20022;-66
2022/07/25 01:10:22;;;;;;;23.10;11.10;;;23.10;62.30;;;;;;9179888;19;20065;-66
2022/07/25 01:13:27;;;;;;;12.23;9.50;;;23.10;62.30;;;;;;9180451;19;20023;-65
2022/07/25 01:16:35;;;;;;;11.75;8.43;;;23.00;62.30;;;;;;9180735;19;20010;-66
2022/07/25 01:19:40;;;;;;;13.80;9.32;;;23.00;62.50;;;;;;9178625;19;20029;-66
2022/07/25 01:22:48;;;;;;;12.43;9.43;;;23.00;62.50;;;;;;9178649;19;20486;-66
2022/07/25 01:25:53;;;;;;;11.57;8.57;;;22.90;62.70;;;;;;9179622;19;20449;-66
2022/07/25 01:28:59;;;;;;;15.48;10.07;;;22.90;62.70;;;;;;9175649;19;20101;-65
2022/07/25 01:32:04;;;;;;;14.43;9.45;;;22.90;62.80;;;;;;9177884;19;20014;-65
2022/07/25 01:35:11;;;;;;;17.15;9.45;;;22.80;62.80;;;;;;9177987;19;20026;-64
2022/07/25 01:38:19;;;;;;;14.88;9.70;;;22.80;62.80;;;;;;9178271;19;20112;-64
2022/07/25 01:41:24;;;;;;;13.13;9.85;;;22.80;63.00;;;;;;9179659;19;20372;-66
2022/07/25 01:44:29;;;;;;;16.35;10.23;;;22.70;63.00;;;;;;9180398;19;20492;-66
2022/07/25 01:47:34;;;;;;;13.43;9.57;;;22.70;63.00;;;;;;9177678;19;20137;-66
2022/07/25 01:50:39;;;;;;;12.82;10.20;;;22.60;63.10;;;;;;9179679;19;20014;-65
2022/07/25 01:53:47;;;;;;;18.17;10.05;;;22.60;63.10;;;;;;9177423;19;20057;-66
2022/07/25 01:56:52;;;;;;;16.27;10.20;;;22.60;63.30;;;;;;9178779;19;20478;-66
2022/07/25 01:59:57;;;;;;;14.70;10.20;;;22.50;63.30;;;;;;9179189;19;20120;-65
2022/07/25 02:06:22;;;;;;;14.88;10.55;;;22.50;63.40;;;;;;9172578;19;20015;-66
2022/07/25 02:09:30;;;;;;;15.57;10.52;;;22.50;63.40;;;;;;9179143;19;20042;-66
2022/07/25 02:12:35;;;;;;;15.32;10.13;;;22.40;63.50;;;;;;9176892;19;20030;-65
2022/07/25 02:15:41;;;;;;;14.77;9.65;;;22.40;63.60;;;;;;9176045;19;20550;-66
2022/07/25 02:18:47;;;;;;;16.17;10.52;;;22.40;63.60;;;;;;9176469;19;20022;-65
2022/07/25 02:21:52;;;;;;;16.98;10.82;;;22.30;63.60;;;;;;9178888;19;20018;-64
2022/07/25 02:25:00;;;;;;;19.02;10.57;;;22.30;63.60;;;;;;9175861;19;20026;-65
2022/07/25 02:28:05;;;;;;;15.52;9.40;;;22.30;63.80;;;;;;9174548;19;20025;-66
2022/07/25 02:31:14;;;;;;;15.25;10.73;;;22.20;63.70;;;;;;9178025;19;20011;-66
2022/07/25 02:34:19;;;;;;;12.95;9.60;;;22.20;63.80;;;;;;9177031;19;20025;-66
2022/07/25 02:37:24;;;;;;;12.63;9.32;;;22.20;63.80;;;;;;9175884;19;20018;-65
2022/07/25 02:40:32;;;;;;;15.32;9.82;;;22.20;63.90;;;;;;9177284;19;20022;-65
2022/07/25 02:43:37;;;;;;;14.93;9.80;;;22.10;63.90;;;;;;9178239;19;20018;-65
2022/07/25 02:46:42;;;;;;;14.50;9.68;;;22.10;64.00;;;;;;9174509;19;20659;-65
2022/07/25 02:49:48;;;;;;;15.35;9.75;;;22.10;64.00;;;;;;9176801;19;20014;-66
2022/07/25 02:52:53;;;;;;;14.73;9.65;;;22.00;64.00;;;;;;9177483;19;20472;-66
2022/07/25 02:56:01;;;;;;;19.60;9.25;;;22.00;64.00;;;;;;9174373;19;20352;-66
2022/07/25 02:59:06;;;;;;;17.48;9.98;;;22.00;64.10;;;;;;9176969;19;20022;-65
2022/07/25 03:02:11;;;;;;;14.48;9.30;;;22.00;64.10;;;;;;9175398;19;20816;-65
2022/07/25 03:05:18;;;;;;;13.50;9.30;;;22.00;64.20;;;;;;9169675;19;20006;-67
2022/07/25 03:08:23;;;;;;;14.68;10.00;;;21.90;64.20;;;;;;9173388;19;20019;-66
2022/07/25 03:11:30;;;;;;;14.23;9.02;;;21.90;64.20;;;;;;9174562;19;20368;-66
2022/07/25 03:14:36;;;;;;;12.40;9.00;;;21.90;64.30;;;;;;9180131;19;20048;-66
2022/07/25 03:17:41;;;;;;;15.30;9.43;;;21.90;64.20;;;;;;9183420;19;20361;-66
2022/07/25 03:20:46;;;;;;;12.25;8.55;;;21.90;64.30;;;;;;9182920;19;20011;-65
2022/07/25 03:23:51;;;;;;;17.10;9.40;;;21.90;64.30;;;;;;9184352;19;20027;-66
2022/07/25 03:26:59;;;;;;;14.68;9.07;;;21.80;64.30;;;;;;9182492;19;20353;-66
2022/07/25 03:30:05;;;;;;;15.20;9.27;;;21.80;64.40;;;;;;9185605;19;20019;-66
2022/07/25 03:33:10;;;;;;;13.77;8.73;;;21.80;64.40;;;;;;9185383;19;20048;-66
2022/07/25 03:36:15;;;;;;;14.30;8.80;;;21.80;64.40;;;;;;9183421;19;20504;-65
2022/07/25 03:39:20;;;;;;;15.32;8.48;;;21.80;64.40;;;;;;9184536;19;20094;-65
2022/07/25 03:42:28;;;;;;;12.10;8.82;;;21.80;64.50;;;;;;9184803;19;20022;-65
2022/07/25 03:45:39;;;;;;;22.05;9.10;;;21.80;64.60;;;;;;9184727;19;20341;-65
2022/07/25 03:48:50;;;;;;;19.40;8.43;;;21.70;64.40;;;;;;9179941;19;20468;-66
2022/07/25 03:51:55;;;;;;;14.93;9.05;;;21.70;64.60;;;;;;9184050;19;20018;-66
2022/07/25 03:55:01;;;;;;;14.55;7.93;;;21.70;64.50;;;;;;9182433;19;20018;-66
2022/07/25 03:58:09;;;;;;;16.40;9.45;;;21.70;64.50;;;;;;9182295;19;20022;-65
2022/07/25 04:01:14;;;;;;;12.93;9.02;;;21.70;64.60;;;;;;9181770;19;20022;-65
2022/07/25 04:04:21;;;;;;;15.55;8.77;;;21.70;64.70;;;;;;9182696;19;20015;-67
2022/07/25 04:07:26;;;;;;;12.48;8.73;;;21.70;64.70;;;;;;9175847;19;20737;-66
2022/07/25 04:10:33;;;;;;;13.85;8.95;;;21.60;64.60;;;;;;9184717;19;20021;-65
2022/07/25 04:13:41;;;;;;;12.88;8.80;;;21.70;64.70;;;;;;9181927;19;20029;-66
2022/07/25 04:16:46;;;;;;;18.52;9.68;;;21.70;64.80;;;;;;9181415;19;20044;-65
2022/07/25 04:19:51;;;;;;;11.77;8.75;;;21.60;64.70;;;;;;9183973;19;20828;-65
2022/07/25 04:22:56;;;;;;;15.77;8.57;;;21.60;64.70;;;;;;9183335;19;20047;-66
2022/07/25 04:26:01;;;;;;;16.10;8.35;;;21.60;64.80;;;;;;9180272;19;20469;-66
2022/07/25 04:29:09;;;;;;;13.32;8.15;;;21.60;64.80;;;;;;9178802;19;20357;-66
2022/07/25 04:32:15;;;;;;;17.48;8.63;;;21.60;65.00;;;;;;9180720;19;20415;-66
2022/07/25 04:35:26;;;;;;;14.85;8.13;;;21.60;65.00;;;;;;9179736;19;20015;-66
2022/07/25 04:38:32;;;;;;;20.42;8.85;;;21.60;65.00;;;;;;9182240;19;20022;-67
2022/07/25 04:41:37;;;;;;;15.98;8.57;;;21.60;65.10;;;;;;9182717;19;20121;-66
2022/07/25 04:44:44;;;;;;;14.02;9.73;;;21.60;65.10;;;;;;9182114;19;20061;-65
2022/07/25 04:47:49;;;;;;;18.60;8.10;;;21.60;65.10;;;;;;9179100;19;20034;-66
2022/07/25 04:50:54;;;;;;;15.32;9.18;;;21.60;65.10;;;;;;9180069;19;20014;-66
2022/07/25 04:54:00;;;;;;;16.15;8.77;;;21.70;65.20;;;;;;9182233;19;20043;-65
2022/07/25 04:57:05;;;;;;;14.20;8.13;;;21.70;65.20;;;;;;9180040;19;20085;-65
2022/07/25 05:00:14;;;;;;;24.00;9.63;;;21.70;65.20;;;;;;9182415;19;20018;-66
2022/07/25 05:03:20;;;;;;;14.05;9.07;;;21.80;65.30;;;;;;9180320;19;20019;-66
2022/07/25 05:06:25;;;;;;;17.13;9.10;;;21.80;65.20;;;;;;9174960;19;20483;-66
2022/07/25 05:09:30;;;;;;;15.13;8.60;;;21.80;65.30;;;;;;9177070;19;20018;-65
2022/07/25 05:12:35;;;;;;;19.58;8.93;;;21.90;65.40;;;;;;9177440;19;20022;-66
2022/07/25 05:15:43;;;;;;;12.95;8.52;;;21.90;65.40;;;;;;9179116;19;20029;-64
2022/07/25 05:18:48;;;;;;;18.05;9.20;;;22.00;65.40;;;;;;9178690;19;20018;-66
2022/07/25 05:21:53;;;;;;;14.38;8.40;;;22.00;65.30;;;;;;9179012;19;20048;-66
2022/07/25 05:25:01;;;;;;;17.73;8.75;;;22.10;65.30;;;;;;9178852;19;20018;-65
2022/07/25 05:28:06;;;;;;;12.90;8.75;;;22.10;65.30;;;;;;9178961;19;20380;-67
2022/07/25 05:31:14;;;;;;;15.85;8.05;;;22.20;65.30;;;;;;9179588;19;20483;-68
2022/07/25 05:34:19;;;;;;;18.58;8.20;;;22.20;65.40;;;;;;9178090;19;20044;-68
2022/07/25 05:37:24;;;;;;;13.65;8.07;;;22.30;65.30;;;;;;9178169;19;20025;-66
2022/07/25 05:40:29;;;;;;;13.30;7.38;;;22.30;65.30;;;;;;9178520;19;20022;-67
2022/07/25 05:43:34;;;;;;;17.08;8.82;;;22.40;65.40;;;;;;9178326;19;20796;-67
2022/07/25 05:46:42;;;;;;;15.10;7.85;;;22.50;65.40;;;;;;9179554;19;20486;-66
2022/07/25 05:49:47;;;;;;;16.17;7.97;;;22.60;65.50;;;;;;9176131;19;20018;-67
2022/07/25 05:52:52;;;;;;;16.45;8.30;;;22.70;65.40;;;;;;9176741;19;20045;-68
2022/07/25 05:55:58;;;;;;;13.32;7.38;;;22.80;65.30;;;;;;9177524;19;20808;-69
2022/07/25 05:59:03;;;;;;;11.13;7.20;;;23.00;65.20;;;;;;9177823;19;20026;-67
2022/07/25 06:02:11;;;;;;;11.90;7.20;;;23.10;65.00;;;;;;9176564;19;20013;-68
2022/07/25 06:05:18;;;;;;;13.20;7.03;;;23.20;64.80;;;;;;9172082;19;20014;-68
2022/07/25 06:08:23;;;;;;;16.88;7.50;;;23.30;64.70;;;;;;9175624;19;20026;-69
2022/07/25 06:11:30;;;;;;;15.40;7.07;;;23.40;64.60;;;;;;9174853;19;20032;-69
2022/07/25 06:14:36;;;;;;;17.67;7.78;;;23.50;64.60;;;;;;9177280;19;20019;-67
2022/07/25 06:17:43;;;;;;;17.20;7.63;;;23.60;65.10;;;;;;9174236;19;20054;-68
2022/07/25 06:20:49;;;;;;;16.30;6.57;;;23.70;64.50;;;;;;9166044;19;20022;-68
2022/07/25 06:23:54;;;;;;;15.50;7.70;;;23.80;64.40;;;;;;9166350;19;20045;-67
2022/07/25 06:26:59;;;;;;;11.98;6.55;;;23.90;64.30;;;;;;9167792;19;20026;-69
2022/07/25 06:30:07;;;;;;;15.38;6.25;;;23.90;64.10;;;;;;9168968;19;20087;-68
2022/07/25 06:33:26;;;;;;;14.00;6.90;;;24.00;64.00;;;;;;9172975;19;20049;-67
2022/07/25 06:36:31;;;;;;;16.98;7.13;;;24.10;63.90;;;;;;9172029;19;20014;-67
2022/07/25 06:39:37;;;;;;;9.52;6.50;;;24.20;63.80;;;;;;9171160;19;20022;-68
2022/07/25 06:42:48;;;;;;;13.35;6.88;;;24.30;63.80;;;;;;9171849;19;20022;-68
2022/07/25 06:45:53;;;;;;;17.23;7.20;;;24.30;63.70;;;;;;9174041;19;20022;-69
2022/07/25 06:49:01;;;;;;;15.60;6.90;;;24.50;63.70;;;;;;9174137;19;20345;-70
2022/07/25 06:52:07;;;;;;;13.13;6.78;;;24.60;63.50;;;;;;9179553;19;20022;-67
2022/07/25 06:55:14;;;;;;;11.55;6.18;;;24.60;63.40;;;;;;9185122;19;20023;-69
2022/07/25 06:58:19;;;;;;;10.02;6.40;;;24.80;63.50;;;;;;9186309;19;20010;-68
2022/07/25 07:01:29;;;;;;;8.80;5.60;;;24.90;63.40;;;;;;9186580;19;20364;-69
2022/07/25 07:04:37;;;;;;;15.75;6.63;;;25.10;63.30;;;;;;9183607;19;20456;-68
2022/07/25 07:07:42;;;;;;;13.60;6.88;;;25.20;63.10;;;;;;9181729;19;20019;-67
2022/07/25 07:10:51;;;;;;;10.85;6.45;;;25.30;62.90;;;;;;9185603;19;20011;-69
2022/07/25 07:13:56;;;;;;;15.15;6.03;;;25.50;62.80;;;;;;9184370;19;20014;-67
2022/07/25 07:17:02;;;;;;;13.85;6.90;;;25.60;62.70;;;;;;9184588;19;20111;-68
2022/07/25 07:20:11;;;;;;;11.38;6.35;;;25.80;62.50;;;;;;9185744;19;20017;-67
2022/07/25 07:23:17;;;;;;;23.00;6.65;;;25.90;62.40;;;;;;9184473;19;20025;-70
2022/07/25 07:26:23;;;;;;;12.57;6.30;;;26.10;62.30;;;;;;9186192;19;20488;-68
2022/07/25 07:29:28;;;;;;;11.45;6.47;;;26.20;62.00;;;;;;9184350;19;20011;-69
2022/07/25 07:32:33;;;;;;;9.85;6.07;;;26.40;61.90;;;;;;9185359;19;20015;-69
2022/07/25 07:35:41;;;;;;;11.02;6.28;;;26.50;61.70;;;;;;9184590;19;20134;-68
2022/07/25 07:38:47;;;;;;;9.98;6.00;;;26.70;61.50;;;;;;9187003;19;20019;-67
2022/07/25 07:41:55;;;;;;;9.75;6.18;;;26.80;61.40;;;;;;9186490;19;20503;-68
2022/07/25 07:45:00;;;;;;;14.23;6.28;;;26.90;61.20;;;;;;9185258;19;20022;-69
2022/07/25 07:48:05;;;;;;;12.30;6.53;;;27.10;61.10;;;;;;9185442;19;20019;-68
2022/07/25 07:51:13;;;;;;;15.07;6.07;;;27.10;60.80;;;;;;9184790;19;20014;-67
2022/07/25 07:57:36;;;;;;;10.68;6.57;;;27.30;60.60;;;;;;9182980;19;20007;-67
2022/07/25 08:00:42;;;;;;;13.48;6.22;;;27.30;60.50;;;;;;9181885;19;20022;-68
2022/07/25 08:03:47;;;;;;;9.43;6.05;;;27.40;60.40;;;;;;9182010;19;20034;-68
2022/07/25 08:06:54;;;;;;;9.73;6.05;;;27.50;60.30;;;;;;9181134;19;20077;-69
2022/07/25 08:09:59;;;;;;;11.20;6.28;;;27.50;60.90;;;;;;9182761;19;20022;-68
2022/07/25 08:13:13;;;;;;;10.50;6.13;;;27.60;60.30;;;;;;9182701;19;20026;-69
2022/07/25 08:16:18;;;;;;;19.95;6.57;;;27.60;60.20;;;;;;9184995;19;20026;-68
2022/07/25 08:19:24;;;;;;;14.68;6.50;;;27.70;60.10;;;;;;9180209;19;20011;-68
2022/07/25 08:22:40;;;;;;;10.40;6.53;;;27.80;59.90;;;;;;9183546;19;20013;-67
2022/07/25 08:25:47;;;;;;;7.55;5.38;;;27.80;59.80;;;;;;9183531;19;20022;-67
2022/07/25 08:28:52;;;;;;;14.88;6.38;;;27.90;59.70;;;;;;9182427;19;20015;-67
2022/07/25 08:32:17;;;;;;;10.45;5.97;;;27.90;59.70;;;;;;9183737;19;20472;-68
2022/07/25 08:35:23;;;;;;;14.95;7.20;;;27.90;59.70;;;;;;9183368;19;20010;-69
2022/07/25 08:38:31;;;;;;;13.23;7.60;;;28.00;59.70;;;;;;9180855;19;21041;-68
2022/07/25 08:41:36;;;;;;;12.95;7.03;;;28.00;59.50;;;;;;9180270;19;20015;-71
2022/07/25 08:44:45;;;;;;;10.32;6.30;;;28.00;59.40;;;;;;9179986;19;20067;-70
2022/07/25 08:47:51;;;;;;;16.83;7.18;;;28.10;59.30;;;;;;9178717;19;20018;-69
2022/07/25 08:50:58;;;;;;;9.80;6.82;;;28.10;59.30;;;;;;9175545;19;20018;-68
2022/07/25 08:54:06;;;;;;;15.00;5.97;;;28.10;59.20;;;;;;9179750;19;20018;-70
2022/07/25 08:57:12;;;;;;;14.07;6.45;;;28.20;59.20;;;;;;9177990;19;20022;-68
2022/07/25 09:00:20;;;;;;;10.65;6.50;;;28.20;59.20;;;;;;9180660;19;20025;-68
2022/07/25 09:03:25;;;;;;;12.10;6.78;;;28.20;59.10;;;;;;9171062;19;20014;-68
2022/07/25 09:06:30;;;;;;;9.73;5.97;;;28.20;59.10;;;;;;9161155;19;20071;-68
2022/07/25 09:09:39;;;;;;;12.25;5.47;;;28.20;59.00;;;;;;9172787;19;20416;-68
2022/07/25 09:12:53;;;;;;;8.85;4.93;;;28.20;58.70;;;;;;9173844;19;20022;-69
2022/07/25 09:15:59;;;;;;;11.35;4.53;;;28.20;59.10;;;;;;9174829;19;20018;-68
2022/07/25 09:19:09;;;;;;;7.05;3.60;;;28.20;58.50;;;;;;9174458;19;20023;-69
2022/07/25 09:22:14;;;;;;;5.32;3.50;;;28.20;58.10;;;;;;9175053;19;20014;-69
2022/07/25 09:25:28;;;;;;;6.18;3.85;;;28.20;58.00;;;;;;9173111;19;21565;-68
2022/07/25 09:28:34;;;;;;;9.15;4.30;;;28.20;57.90;;;;;;9175937;19;20018;-67
2022/07/25 09:31:41;;;;;;;5.20;3.75;;;28.10;57.80;;;;;;9175867;19;20035;-69
2022/07/25 09:34:51;;;;;;;6.22;3.45;;;28.20;57.80;;;;;;9177900;19;20472;-72
2022/07/25 09:38:09;;;;;;;7.07;3.80;;;28.20;57.70;;;;;;9175912;19;20109;-68
2022/07/25 09:41:20;;;;;;;5.72;3.30;;;28.20;57.40;;;;;;9174679;19;20668;-72
2022/07/25 09:44:29;;;;;;;4.97;2.90;;;28.20;57.40;;;;;;9175538;19;20380;-70
2022/07/25 09:47:41;;;;;;;8.07;3.33;;;28.20;57.40;;;;;;9176952;19;20408;-69
2022/07/25 09:50:46;;;;;;;3.33;2.70;;;28.20;57.30;;;;;;9174155;19;20028;-67
2022/07/25 09:53:51;;;;;;;7.05;2.90;;;28.30;57.20;;;;;;9174152;19;20514;-69
2022/07/25 09:56:59;;;;;;;3.63;2.47;;;28.30;57.10;;;;;;9175312;19;20057;-68
2022/07/25 10:00:07;;;;;;;5.70;2.40;;;28.40;56.70;;;;;;9177182;19;20015;-69
2022/07/25 10:03:23;;;;;;;5.90;2.20;;;28.50;56.50;;;;;;9176663;19;20010;-69
2022/07/25 10:06:40;;;;;;;2.40;1.92;;;28.70;56.40;;;;;;9172445;19;20014;-68
2022/07/25 10:09:47;;;;;;;5.75;2.20;;;28.80;56.00;;;;;;9176067;19;20011;-70
2022/07/25 10:13:10;;;;;;;4.38;2.22;;;29.00;55.90;;;;;;9179670;19;20042;-69
2022/07/25 10:16:21;;;;;;;7.88;2.88;;;29.20;55.60;;;;;;9176959;19;20022;-68
2022/07/25 10:19:44;;;;;;;5.50;2.28;;;29.30;55.50;;;;;;9176491;19;20015;-69
2022/07/25 10:22:54;;;;;;;3.42;2.33;;;29.50;55.20;;;;;;9177873;19;20025;-68
2022/07/25 10:26:09;;;;;;;5.57;2.10;;;29.60;55.30;;;;;;9175246;19;20074;-67
2022/07/25 10:29:18;;;;;;;3.30;2.50;;;29.80;54.90;;;;;;9176068;19;20029;-67
2022/07/25 10:32:34;;;;;;;6.55;2.08;;;29.90;54.90;;;;;;9176401;19;20014;-68
2022/07/25 10:35:39;;;;;;;4.20;2.05;;;30.10;54.60;;;;;;9177625;19;20345;-67
2022/07/25 10:38:48;;;;;;;3.00;2.03;;;30.20;54.40;;;;;;9176176;19;20022;-67
2022/07/25 10:41:54;;;;;;;1.55;1.45;;;30.30;54.00;;;;;;9175556;19;20022;-67
2022/07/25 10:45:08;;;;;;;5.50;1.90;;;30.40;53.90;;;;;;9177453;19;20048;-66
2022/07/25 10:48:21;;;;;;;8.15;2.88;;;30.50;53.60;;;;;;9177532;19;20026;-66
2022/07/25 10:51:28;;;;;;;;;;;30.50;53.60;;;;;;9173995;19;20025;-66
2022/07/25 10:54:37;;;;;;;3.58;2.53;;;30.60;54.00;;;;;;9175491;19;19918;-66
2022/07/25 10:57:42;;;;;;;8.55;2.25;;;30.60;53.60;;;;;;9177143;19;20023;-66
2022/07/25 11:01:10;;;;;;;5.55;1.60;;;30.70;53.70;;;;;;9177536;19;20052;-67
2022/07/25 11:04:17;;;;;;;2.55;1.88;;;30.80;53.50;;;;;;9177349;19;20018;-66
2022/07/25 11:07:22;;;;;;;5.70;1.80;;;30.80;53.40;;;;;;9172797;19;20018;-66
2022/07/25 11:10:28;;;;;;;3.70;2.08;;;30.90;53.30;;;;;;9177111;19;20023;-66
2022/07/25 11:13:38;;;;;;;3.13;1.83;;;31.00;53.30;;;;;;9178745;19;20496;-66
2022/07/25 11:16:47;;;;;;;2.60;1.83;;;31.10;53.00;;;;;;9178738;19;20376;-66
2022/07/25 11:19:58;;;;;;;9.40;1.98;;;31.20;52.90;;;;;;9177824;19;20014;-67
2022/07/25 11:23:03;;;;;;;21.38;2.65;;;31.30;52.80;;;;;;9172316;19;20011;-67
2022/07/25 11:26:13;;;;;;;3.25;1.85;;;31.40;52.90;;;;;;9172067;19;20010;-67
2022/07/25 11:29:23;;;;;;;7.22;1.80;;;31.50;52.60;;;;;;9173073;19;20086;-67
2022/07/25 11:32:40;;;;;;;14.18;2.28;;;31.50;52.20;;;;;;9167661;19;20015;-67
2022/07/25 11:35:46;;;;;;;3.42;1.98;;;31.60;52.30;;;;;;9177015;19;20022;-66
2022/07/25 11:38:52;;;;;;;4.18;1.60;;;31.60;52.60;;;;;;9180440;19;20075;-66
2022/07/25 11:42:02;;;;;;;3.78;1.25;;;31.60;52.50;;;;;;9179640;19;20022;-66
2022/07/25 11:45:18;;;;;;;4.18;1.17;;;31.50;52.30;;;;;;9180843;19;20022;-67
2022/07/25 11:48:32;;;;;;;1.80;1.10;;;31.50;52.10;;;;;;9178952;19;20472;-66
2022/07/25 11:51:40;;;;;;;5.70;1.17;;;31.40;52.60;;;;;;9179710;19;20022;-65
2022/07/25 11:54:52;;;;;;;2.63;1.30;;;31.30;52.10;;;;;;9179205;19;20022;-65
2022/07/25 11:58:01;;;;;;;2.58;1.40;;;31.10;51.90;;;;;;9180567;19;20475;-65
2022/07/25 12:01:14;;;;;;;2.53;1.20;;;31.00;51.80;;;;;;9181306;19;20515;-65
2022/07/25 12:04:22;;;;;;;3.73;1.27;;;30.90;51.90;;;;;;9179069;19;20023;-66
2022/07/25 12:07:43;;;;;;;5.13;1.40;;;30.70;52.10;;;;;;9174013;19;21402;-65
2022/07/25 12:10:50;;;;;;;3.53;1.25;;;30.60;52.60;;;;;;9176930;19;20387;-65
2022/07/25 12:14:05;;;;;;;2.45;1.35;;;30.60;52.20;;;;;;9179330;19;20057;-65
2022/07/25 12:17:10;;;;;;;2.70;1.30;;;30.50;52.20;;;;;;9180532;19;20018;-65
2022/07/25 12:20:20;;;;;;;1.60;1.20;;;30.30;52.10;;;;;;9177963;19;20661;-65
2022/07/25 12:23:25;;;;;;;3.75;1.52;;;30.20;52.10;;;;;;9178414;19;20019;-65
2022/07/25 12:26:30;;;;;;;2.80;1.17;;;30.10;52.10;;;;;;9178047;19;20014;-65
2022/07/25 12:29:35;;;;;;;5.35;1.27;;;30.00;52.10;;;;;;9176593;19;20010;-65
2022/07/25 12:32:40;;;;;;;4.88;1.50;;;29.90;52.10;;;;;;9175457;19;20519;-65
2022/07/25 12:35:48;;;;;;;2.97;1.58;;;29.90;52.20;;;;;;9176836;19;20362;-65
2022/07/25 12:38:53;;;;;;;7.05;1.33;;;29.70;52.10;;;;;;9172042;19;20015;-65
2022/07/25 12:41:58;;;;;;;3.70;1.27;;;29.70;52.30;;;;;;9171455;19;20022;-65
2022/07/25 12:45:03;;;;;;;2.63;1.27;;;29.60;52.30;;;;;;9172453;19;20018;-65
2022/07/25 12:48:09;;;;;;;1.48;1.27;;;29.50;52.40;;;;;;9170098;19;20025;-65
2022/07/25 12:51:16;;;;;;;3.78;1.65;;;29.50;52.50;;;;;;9171492;19;20491;-65
2022/07/25 12:54:21;;;;;;;5.63;2.05;;;29.50;52.50;;;;;;9175021;19;20483;-65
2022/07/25 12:57:27;;;;;;;5.25;1.60;;;29.40;52.50;;;;;;9172948;19;20026;-65
2022/07/25 13:00:32;;;;;;;6.07;1.40;;;29.40;52.60;;;;;;9173649;19;20618;-66
2022/07/25 13:03:37;;;;;;;4.88;1.52;;;29.30;52.40;;;;;;9174345;19;20452;-65
2022/07/25 13:06:44;;;;;;;8.02;1.52;;;29.10;52.30;;;;;;9169297;19;20026;-65
2022/07/25 13:09:49;;;;;;;3.65;1.63;;;29.10;52.40;;;;;;9170587;19;20019;-65
2022/07/25 13:12:55;;;;;;;8.43;1.77;;;29.00;52.50;;;;;;9170755;19;20018;-65
2022/07/25 13:16:00;;;;;;;9.25;2.08;;;28.90;52.60;;;;;;9170131;19;20026;-65
2022/07/25 13:19:08;;;;;;;6.63;2.03;;;28.80;52.70;;;;;;9168578;19;20014;-65
2022/07/25 13:22:16;;;;;;;14.88;1.70;;;28.80;52.90;;;;;;9170073;19;20025;-66
2022/07/25 13:25:21;;;;;;;5.28;1.65;;;28.80;53.00;;;;;;9174150;19;20029;-64
2022/07/25 13:28:26;;;;;;;6.80;1.80;;;28.70;52.90;;;;;;9172029;19;20022;-65
2022/07/25 13:31:31;;;;;;;4.25;1.55;;;28.70;53.00;;;;;;9170593;19;20491;-65
2022/07/25 13:34:38;;;;;;;8.57;1.80;;;28.70;53.00;;;;;;9172655;19;20018;-67
2022/07/25 13:37:45;;;;;;;4.57;1.80;;;28.60;53.00;;;;;;9171981;19;20021;-67
2022/07/25 13:40:50;;;;;;;9.90;2.10;;;28.60;53.00;;;;;;9174080;19;20579;-67
2022/07/25 13:44:02;;;;;;;10.95;1.70;;;28.50;53.00;;;;;;9169590;19;20086;-67
2022/07/25 13:47:07;;;;;;;3.47;1.50;;;28.50;53.00;;;;;;9169834;19;20125;-66
2022/07/25 13:50:12;;;;;;;7.25;1.58;;;28.40;53.00;;;;;;9171239;19;20037;-67
2022/07/25 13:53:20;;;;;;;5.65;1.55;;;28.50;53.00;;;;;;9169675;19;20021;-66
2022/07/25 13:56:32;;;;;;;;;;;28.50;52.90;;;;;;9172416;19;20022;-67
2022/07/25 13:59:37;;;;;;;12.57;1.98;;;28.50;53.10;;;;;;9173061;19;19930;-64
2022/07/25 14:02:42;;;;;;;15.88;2.00;;;28.50;52.80;;;;;;9173660;19;20006;-66
2022/07/25 14:05:47;;;;;;;11.63;2.35;;;28.60;52.60;;;;;;9166327;19;20022;-67
2022/07/25 14:08:55;;;;;;;14.20;2.50;;;28.50;52.50;;;;;;9170436;19;20028;-67
2022/07/25 14:12:00;;;;;;;12.85;1.90;;;28.50;52.50;;;;;;9167834;19;20368;-66
2022/07/25 14:15:06;;;;;;;7.68;1.73;;;28.40;52.50;;;;;;9170490;19;20029;-66
2022/07/25 14:18:11;;;;;;;8.63;2.05;;;28.30;52.40;;;;;;9171199;19;20029;-66
2022/07/25 14:21:16;;;;;;;10.73;3.00;;;28.30;52.50;;;;;;9168320;19;20507;-66
2022/07/25 14:24:23;;;;;;;15.00;2.30;;;28.20;52.50;;;;;;9173152;19;20030;-67
2022/07/25 14:27:28;;;;;;;5.22;2.22;;;28.10;52.50;;;;;;9170883;19;20014;-67
2022/07/25 14:30:33;;;;;;;9.85;2.40;;;28.00;52.50;;;;;;9168433;19;20017;-69
2022/07/25 14:33:39;;;;;;;13.02;2.75;;;27.80;52.50;;;;;;9167155;19;20018;-65
2022/07/25 14:36:46;;;;;;;10.45;2.42;;;27.70;52.50;;;;;;9163394;19;20041;-66
2022/07/25 14:39:54;;;;;;;10.63;2.47;;;27.50;52.60;;;;;;9173696;19;20029;-65
2022/07/25 14:42:59;;;;;;;10.05;2.30;;;27.40;52.80;;;;;;9168750;19;20025;-66
2022/07/25 14:46:04;;;;;;;8.07;2.13;;;27.30;52.80;;;;;;9167371;19;20025;-64
2022/07/25 14:49:09;;;;;;;7.13;2.35;;;27.20;53.00;;;;;;9168017;19;20019;-66
2022/07/25 14:52:15;;;;;;;8.15;2.08;;;27.20;53.10;;;;;;9166848;19;20078;-65
2022/07/25 14:55:24;;;;;;;11.20;2.13;;;27.10;53.10;;;;;;9170282;19;20026;-64
2022/07/25 14:58:29;;;;;;;8.52;2.53;;;27.10;53.20;;;;;;9170873;19;20018;-66
2022/07/25 15:01:34;;;;;;;4.75;1.75;;;27.00;53.10;;;;;;9168009;19;20026;-67
2022/07/25 15:04:39;;;;;;;6.20;2.17;;;27.00;53.20;;;;;;9165178;19;20014;-66
2022/07/25 15:07:44;;;;;;;10.95;2.40;;;27.10;53.30;;;;;;9165218;19;20022;-64
2022/07/25 15:10:52;;;;;;;14.23;2.85;;;27.10;53.30;;;;;;9173327;19;20645;-66
2022/07/25 15:13:57;;;;;;;13.65;2.67;;;27.10;53.30;;;;;;9177906;19;20018;-66
2022/07/25 15:17:02;;;;;;;10.82;2.75;;;27.10;53.30;;;;;;9178977;19;20025;-66
2022/07/25 15:20:08;;;;;;;12.68;2.38;;;27.10;53.30;;;;;;9176977;19;20063;-65
2022/07/25 15:23:13;;;;;;;9.32;2.20;;;27.10;53.40;;;;;;9178424;19;20546;-65
2022/07/25 15:26:21;;;;;;;7.68;2.30;;;27.20;53.40;;;;;;9178669;19;20046;-65
2022/07/25 15:29:27;;;;;;;6.70;2.10;;;27.20;53.40;;;;;;9177720;19;20018;-66
2022/07/25 15:32:32;;;;;;;12.85;2.10;;;27.20;53.30;;;;;;9174033;19;20033;-65
2022/07/25 15:35:37;;;;;;;8.43;2.00;;;27.20;53.20;;;;;;9177540;19;20508;-66
2022/07/25 15:38:42;;;;;;;8.40;1.92;;;27.20;53.20;;;;;;9176132;19;20023;-68
2022/07/25 15:41:50;;;;;;;8.23;1.55;;;27.20;53.30;;;;;;9180335;19;20021;-66
2022/07/25 15:44:55;;;;;;;14.27;1.83;;;27.20;53.10;;;;;;9176837;19;20736;-68
2022/07/25 15:48:20;;;;;;;13.90;1.88;;;27.20;53.10;;;;;;9174345;19;20031;-68
2022/07/25 15:51:25;;;;;;;6.93;2.00;;;27.20;53.00;;;;;;9176535;19;20484;-68
2022/07/25 15:54:30;;;;;;;9.32;1.60;;;27.20;53.00;;;;;;9176789;19;20011;-67
2022/07/25 15:57:38;;;;;;;6.97;1.92;;;27.10;52.90;;;;;;9174884;19;20014;-67
2022/07/25 16:00:43;;;;;;;8.90;1.38;;;27.10;53.40;;;;;;9177492;19;20010;-67
2022/07/25 16:03:49;;;;;;;17.48;2.30;;;27.10;52.80;;;;;;9175672;19;20014;-67
2022/07/25 16:06:54;;;;;;;8.70;1.95;;;27.10;52.70;;;;;;9171509;19;20018;-67
2022/07/25 16:09:59;;;;;;;8.73;1.90;;;27.00;52.70;;;;;;9177670;19;20078;-67
2022/07/25 16:13:06;;;;;;;6.95;2.05;;;27.00;52.60;;;;;;9176548;19;20341;-67